sensor_id;sensor_type;location;lat;lon;timestamp;P1;durP1;ratioP1;P2;durP2;ratioP2
11655;SDS011;5884;43.618;1.438;2023-11-21T05:46:37;6.03;;;1.40;;
11655;SDS011;5884;43.618;1.438;2023-11-21T05:49:04;8.10;;;2.10;;
11655;SDS011;5884;43.618;1.438;2023-11-21T05:51:33;9.50;;;1.77;;
11655;SDS011;5884;43.618;1.438;2023-11-21T05:54:00;5.37;;;1.80;;
11655;SDS011;5884;43.618;1.438;2023-11-21T05:56:27;13.60;;;1.87;;
11655;SDS011;5884;43.618;1.438;2023-11-21T05:58:55;7.83;;;1.83;;
11655;SDS011;5884;43.618;1.438;2023-11-21T06:01:22;6.53;;;1.73;;
11655;SDS011;5884;43.618;1.438;2023-11-21T06:03:50;9.77;;;1.97;;
11655;SDS011;5884;43.618;1.438;2023-11-21T06:06:17;8.83;;;1.80;;
11655;SDS011;5884;43.618;1.438;2023-11-21T06:08:44;8.37;;;1.87;;
11655;SDS011;5884;43.618;1.438;2023-11-21T06:11:11;6.70;;;1.60;;
11655;SDS011;5884;43.618;1.438;2023-11-21T06:13:39;7.67;;;1.27;;
11655;SDS011;5884;43.618;1.438;2023-11-21T06:16:07;11.13;;;1.73;;
11655;SDS011;5884;43.618;1.438;2023-11-21T06:18:34;7.07;;;1.10;;
11655;SDS011;5884;43.618;1.438;2023-11-21T06:21:03;8.33;;;1.60;;
11655;SDS011;5884;43.618;1.438;2023-11-21T06:23:31;9.87;;;2.10;;
11655;SDS011;5884;43.618;1.438;2023-11-21T06:25:58;6.33;;;1.10;;
11655;SDS011;5884;43.618;1.438;2023-11-21T06:28:25;8.73;;;1.30;;
11655;SDS011;5884;43.618;1.438;2023-11-21T06:30:53;8.57;;;1.37;;
11655;SDS011;5884;43.618;1.438;2023-11-21T06:33:20;5.90;;;1.40;;
11655;SDS011;5884;43.618;1.438;2023-11-21T06:35:47;6.20;;;1.20;;
11655;SDS011;5884;43.618;1.438;2023-11-21T06:38:16;9.67;;;1.67;;
11655;SDS011;5884;43.618;1.438;2023-11-21T06:40:43;7.50;;;1.30;;
11655;SDS011;5884;43.618;1.438;2023-11-21T06:43:10;6.40;;;1.53;;
11655;SDS011;5884;43.618;1.438;2023-11-21T06:45:39;9.40;;;1.97;;
11655;SDS011;5884;43.618;1.438;2023-11-21T06:48:06;7.80;;;1.20;;
11655;SDS011;5884;43.618;1.438;2023-11-21T06:50:33;8.33;;;1.73;;
11655;SDS011;5884;43.618;1.438;2023-11-21T06:53:01;4.50;;;1.30;;
11655;SDS011;5884;43.618;1.438;2023-11-21T06:55:33;12.10;;;2.00;;
11655;SDS011;5884;43.618;1.438;2023-11-21T06:58:00;5.53;;;1.20;;
11655;SDS011;5884;43.618;1.438;2023-11-21T07:00:28;10.27;;;2.27;;
11655;SDS011;5884;43.618;1.438;2023-11-21T07:02:55;4.23;;;1.40;;
11655;SDS011;5884;43.618;1.438;2023-11-21T07:05:22;7.40;;;1.60;;
11655;SDS011;5884;43.618;1.438;2023-11-21T07:07:49;7.97;;;1.47;;
11655;SDS011;5884;43.618;1.438;2023-11-21T07:10:19;5.93;;;1.67;;
11655;SDS011;5884;43.618;1.438;2023-11-21T07:12:47;6.63;;;1.67;;
11655;SDS011;5884;43.618;1.438;2023-11-21T07:15:16;4.70;;;1.37;;
11655;SDS011;5884;43.618;1.438;2023-11-21T07:17:44;6.27;;;1.60;;
11655;SDS011;5884;43.618;1.438;2023-11-21T07:20:12;5.07;;;1.73;;
11655;SDS011;5884;43.618;1.438;2023-11-21T07:22:42;9.23;;;1.60;;
11655;SDS011;5884;43.618;1.438;2023-11-21T07:25:09;5.10;;;2.10;;
11655;SDS011;5884;43.618;1.438;2023-11-21T07:27:37;7.37;;;1.83;;
11655;SDS011;5884;43.618;1.438;2023-11-21T07:30:06;4.97;;;1.90;;
11655;SDS011;5884;43.618;1.438;2023-11-21T07:32:35;7.33;;;1.60;;
11655;SDS011;5884;43.618;1.438;2023-11-21T07:35:02;6.47;;;1.50;;
11655;SDS011;5884;43.618;1.438;2023-11-21T07:37:30;7.27;;;1.90;;
11655;SDS011;5884;43.618;1.438;2023-11-21T07:39:57;8.37;;;4.90;;
11655;SDS011;5884;43.618;1.438;2023-11-21T07:42:24;6.03;;;2.93;;
11655;SDS011;5884;43.618;1.438;2023-11-21T07:44:51;9.33;;;1.80;;
11655;SDS011;5884;43.618;1.438;2023-11-21T07:47:19;8.40;;;1.93;;
11655;SDS011;5884;43.618;1.438;2023-11-21T07:49:47;11.70;;;2.70;;
11655;SDS011;5884;43.618;1.438;2023-11-21T07:52:14;4.10;;;2.10;;
11655;SDS011;5884;43.618;1.438;2023-11-21T07:54:42;6.40;;;4.10;;
11655;SDS011;5884;43.618;1.438;2023-11-21T07:57:09;3.97;;;2.40;;
11655;SDS011;5884;43.618;1.438;2023-11-21T07:59:38;4.13;;;2.10;;
11655;SDS011;5884;43.618;1.438;2023-11-21T08:02:05;5.60;;;1.83;;
11655;SDS011;5884;43.618;1.438;2023-11-21T08:04:34;6.30;;;1.77;;
11655;SDS011;5884;43.618;1.438;2023-11-21T08:07:01;5.13;;;1.90;;
11655;SDS011;5884;43.618;1.438;2023-11-21T08:09:30;4.90;;;1.73;;
11655;SDS011;5884;43.618;1.438;2023-11-21T08:11:58;4.07;;;2.23;;
11655;SDS011;5884;43.618;1.438;2023-11-21T08:14:25;5.27;;;1.43;;
11655;SDS011;5884;43.618;1.438;2023-11-21T08:16:52;2.93;;;1.50;;
11655;SDS011;5884;43.618;1.438;2023-11-21T08:19:22;2.70;;;1.33;;
11655;SDS011;5884;43.618;1.438;2023-11-21T08:21:52;4.87;;;1.57;;
11655;SDS011;5884;43.618;1.438;2023-11-21T08:24:20;7.57;;;1.63;;
11655;SDS011;5884;43.618;1.438;2023-11-21T08:26:48;3.07;;;1.40;;
11655;SDS011;5884;43.618;1.438;2023-11-21T08:29:16;5.57;;;1.67;;
11655;SDS011;5884;43.618;1.438;2023-11-21T08:31:43;6.33;;;1.67;;
11655;SDS011;5884;43.618;1.438;2023-11-21T08:34:11;5.90;;;1.60;;
11655;SDS011;5884;43.618;1.438;2023-11-21T08:36:41;2.60;;;1.40;;
11655;SDS011;5884;43.618;1.438;2023-11-21T08:39:10;4.17;;;1.63;;
11655;SDS011;5884;43.618;1.438;2023-11-21T08:41:38;5.93;;;1.53;;
11655;SDS011;5884;43.618;1.438;2023-11-21T08:44:05;3.23;;;1.33;;
11655;SDS011;5884;43.618;1.438;2023-11-21T08:46:33;3.57;;;1.70;;
11655;SDS011;5884;43.618;1.438;2023-11-21T08:49:01;5.13;;;1.33;;
11655;SDS011;5884;43.618;1.438;2023-11-21T08:51:29;5.27;;;1.40;;
11655;SDS011;5884;43.618;1.438;2023-11-21T08:53:56;3.47;;;1.60;;
11655;SDS011;5884;43.618;1.438;2023-11-21T08:56:27;5.53;;;1.57;;
11655;SDS011;5884;43.618;1.438;2023-11-21T08:58:54;4.70;;;1.60;;
11655;SDS011;5884;43.618;1.438;2023-11-21T09:01:22;3.47;;;1.27;;
11655;SDS011;5884;43.618;1.438;2023-11-21T09:03:50;4.03;;;1.87;;
11655;SDS011;5884;43.618;1.438;2023-11-21T09:06:17;4.60;;;1.80;;
11655;SDS011;5884;43.618;1.438;2023-11-21T09:08:44;9.00;;;2.03;;
11655;SDS011;5884;43.618;1.438;2023-11-21T09:11:12;5.53;;;1.87;;
11655;SDS011;5884;43.618;1.438;2023-11-21T09:13:41;5.80;;;2.03;;
11655;SDS011;5884;43.618;1.438;2023-11-21T09:16:08;3.97;;;1.63;;
11655;SDS011;5884;43.618;1.438;2023-11-21T09:18:36;6.90;;;2.03;;
11655;SDS011;5884;43.618;1.438;2023-11-21T09:21:03;4.40;;;1.70;;
11655;SDS011;5884;43.618;1.438;2023-11-21T09:23:30;7.83;;;1.70;;
11655;SDS011;5884;43.618;1.438;2023-11-21T09:25:58;5.47;;;1.37;;
11655;SDS011;5884;43.618;1.438;2023-11-21T09:28:26;6.93;;;1.97;;
11655;SDS011;5884;43.618;1.438;2023-11-21T09:30:54;5.67;;;1.40;;
11655;SDS011;5884;43.618;1.438;2023-11-21T09:33:21;3.83;;;1.30;;
11655;SDS011;5884;43.618;1.438;2023-11-21T09:35:50;2.63;;;1.50;;
11655;SDS011;5884;43.618;1.438;2023-11-21T09:38:17;5.60;;;1.90;;
11655;SDS011;5884;43.618;1.438;2023-11-21T09:40:45;6.13;;;1.50;;
11655;SDS011;5884;43.618;1.438;2023-11-21T09:43:14;2.07;;;1.30;;
11655;SDS011;5884;43.618;1.438;2023-11-21T09:45:44;4.10;;;1.50;;
11655;SDS011;5884;43.618;1.438;2023-11-21T09:48:14;7.37;;;1.83;;
11655;SDS011;5884;43.618;1.438;2023-11-21T09:50:42;2.63;;;1.60;;
11655;SDS011;5884;43.618;1.438;2023-11-21T09:53:13;4.43;;;1.90;;
11655;SDS011;5884;43.618;1.438;2023-11-21T09:55:46;4.80;;;2.40;;
11655;SDS011;5884;43.618;1.438;2023-11-21T09:58:16;2.83;;;1.33;;
11655;SDS011;5884;43.618;1.438;2023-11-21T10:00:44;4.07;;;1.37;;
11655;SDS011;5884;43.618;1.438;2023-11-21T10:03:15;6.53;;;2.00;;
11655;SDS011;5884;43.618;1.438;2023-11-21T10:05:42;4.47;;;1.43;;
11655;SDS011;5884;43.618;1.438;2023-11-21T10:08:11;4.07;;;1.73;;
11655;SDS011;5884;43.618;1.438;2023-11-21T10:10:43;5.53;;;1.63;;
11655;SDS011;5884;43.618;1.438;2023-11-21T10:13:13;3.87;;;1.80;;
11655;SDS011;5884;43.618;1.438;2023-11-21T10:15:42;2.80;;;1.00;;
11655;SDS011;5884;43.618;1.438;2023-11-21T10:18:15;6.27;;;1.40;;
11655;SDS011;5884;43.618;1.438;2023-11-21T10:20:43;6.30;;;1.50;;
11655;SDS011;5884;43.618;1.438;2023-11-21T10:23:17;6.87;;;1.57;;
11655;SDS011;5884;43.618;1.438;2023-11-21T10:25:46;4.03;;;1.47;;
11655;SDS011;5884;43.618;1.438;2023-11-21T10:28:13;3.13;;;1.00;;
11655;SDS011;5884;43.618;1.438;2023-11-21T10:30:40;5.10;;;1.60;;
11655;SDS011;5884;43.618;1.438;2023-11-21T10:33:09;2.57;;;1.27;;
11655;SDS011;5884;43.618;1.438;2023-11-21T10:35:44;3.67;;;1.40;;
11655;SDS011;5884;43.618;1.438;2023-11-21T10:38:16;2.10;;;1.00;;
11655;SDS011;5884;43.618;1.438;2023-11-21T10:40:44;2.50;;;1.10;;
11655;SDS011;5884;43.618;1.438;2023-11-21T10:43:13;3.97;;;2.10;;
11655;SDS011;5884;43.618;1.438;2023-11-21T10:45:41;2.77;;;1.23;;
11655;SDS011;5884;43.618;1.438;2023-11-21T10:48:09;1.97;;;1.00;;
11655;SDS011;5884;43.618;1.438;2023-11-21T10:50:40;3.50;;;1.53;;
11655;SDS011;5884;43.618;1.438;2023-11-21T10:53:09;2.73;;;1.30;;
11655;SDS011;5884;43.618;1.438;2023-11-21T10:55:38;1.87;;;1.20;;
11655;SDS011;5884;43.618;1.438;2023-11-21T10:58:05;3.67;;;1.50;;
11655;SDS011;5884;43.618;1.438;2023-11-21T11:00:35;4.07;;;1.60;;
11655;SDS011;5884;43.618;1.438;2023-11-21T11:03:05;3.60;;;1.77;;
11655;SDS011;5884;43.618;1.438;2023-11-21T11:05:38;4.47;;;1.87;;
11655;SDS011;5884;43.618;1.438;2023-11-21T11:08:08;3.40;;;1.57;;
11655;SDS011;5884;43.618;1.438;2023-11-21T11:10:43;4.70;;;2.07;;
11655;SDS011;5884;43.618;1.438;2023-11-21T11:13:11;5.10;;;2.20;;
11655;SDS011;5884;43.618;1.438;2023-11-21T11:15:40;4.13;;;1.60;;
11655;SDS011;5884;43.618;1.438;2023-11-21T11:18:08;5.33;;;2.00;;
11655;SDS011;5884;43.618;1.438;2023-11-21T11:20:36;4.30;;;2.03;;
11655;SDS011;5884;43.618;1.438;2023-11-21T11:23:12;2.43;;;1.67;;
11655;SDS011;5884;43.618;1.438;2023-11-21T11:25:59;4.23;;;1.70;;
11655;SDS011;5884;43.618;1.438;2023-11-21T11:28:39;4.27;;;1.80;;
11655;SDS011;5884;43.618;1.438;2023-11-21T11:31:16;2.80;;;1.60;;
11655;SDS011;5884;43.618;1.438;2023-11-21T11:33:56;3.40;;;1.60;;
11655;SDS011;5884;43.618;1.438;2023-11-21T11:36:31;4.03;;;1.97;;
11655;SDS011;5884;43.618;1.438;2023-11-21T11:41:55;6.03;;;2.53;;
11655;SDS011;5884;43.618;1.438;2023-11-21T11:47:20;4.10;;;1.80;;
11655;SDS011;5884;43.618;1.438;2023-11-21T11:49:57;7.90;;;3.30;;
11655;SDS011;5884;43.618;1.438;2023-11-21T11:52:32;4.50;;;2.73;;
11655;SDS011;5884;43.618;1.438;2023-11-21T11:55:09;8.67;;;5.97;;
11655;SDS011;5884;43.618;1.438;2023-11-21T11:57:38;5.00;;;3.33;;
11655;SDS011;5884;43.618;1.438;2023-11-21T12:00:07;6.47;;;2.87;;
11655;SDS011;5884;43.618;1.438;2023-11-21T12:02:46;2.83;;;2.20;;
11655;SDS011;5884;43.618;1.438;2023-11-21T12:05:15;4.60;;;2.57;;
11655;SDS011;5884;43.618;1.438;2023-11-21T12:07:48;3.10;;;2.10;;
11655;SDS011;5884;43.618;1.438;2023-11-21T12:10:19;4.57;;;1.80;;
11655;SDS011;5884;43.618;1.438;2023-11-21T12:12:50;2.87;;;1.80;;
11655;SDS011;5884;43.618;1.438;2023-11-21T12:15:19;6.50;;;3.10;;
11655;SDS011;5884;43.618;1.438;2023-11-21T12:17:47;2.67;;;2.23;;
11655;SDS011;5884;43.618;1.438;2023-11-21T12:20:16;3.33;;;2.10;;
11655;SDS011;5884;43.618;1.438;2023-11-21T12:22:46;2.50;;;1.60;;
11655;SDS011;5884;43.618;1.438;2023-11-21T12:25:15;2.13;;;1.57;;
11655;SDS011;5884;43.618;1.438;2023-11-21T12:27:45;3.87;;;1.43;;
11655;SDS011;5884;43.618;1.438;2023-11-21T12:30:14;2.33;;;1.47;;
11655;SDS011;5884;43.618;1.438;2023-11-21T12:32:44;4.03;;;1.10;;
11655;SDS011;5884;43.618;1.438;2023-11-21T12:35:14;2.50;;;1.20;;
11655;SDS011;5884;43.618;1.438;2023-11-21T12:37:44;3.67;;;1.57;;
11655;SDS011;5884;43.618;1.438;2023-11-21T12:40:12;2.93;;;1.30;;
11655;SDS011;5884;43.618;1.438;2023-11-21T12:42:42;3.97;;;1.53;;
11655;SDS011;5884;43.618;1.438;2023-11-21T12:45:19;4.13;;;1.70;;
11655;SDS011;5884;43.618;1.438;2023-11-21T12:47:48;2.90;;;1.77;;
11655;SDS011;5884;43.618;1.438;2023-11-21T12:50:18;3.90;;;1.63;;
11655;SDS011;5884;43.618;1.438;2023-11-21T12:52:49;2.93;;;1.67;;
11655;SDS011;5884;43.618;1.438;2023-11-21T12:55:19;4.90;;;1.80;;
11655;SDS011;5884;43.618;1.438;2023-11-21T12:57:48;3.17;;;1.53;;
11655;SDS011;5884;43.618;1.438;2023-11-21T13:00:27;3.13;;;2.00;;
11655;SDS011;5884;43.618;1.438;2023-11-21T13:02:59;2.80;;;2.03;;
11655;SDS011;5884;43.618;1.438;2023-11-21T13:05:26;3.53;;;1.67;;
11655;SDS011;5884;43.618;1.438;2023-11-21T13:07:55;4.37;;;2.10;;
11655;SDS011;5884;43.618;1.438;2023-11-21T13:10:24;3.83;;;1.77;;
11655;SDS011;5884;43.618;1.438;2023-11-21T13:12:56;2.83;;;1.70;;
11655;SDS011;5884;43.618;1.438;2023-11-21T13:15:26;3.63;;;2.20;;
11655;SDS011;5884;43.618;1.438;2023-11-21T13:17:56;4.87;;;1.97;;
11655;SDS011;5884;43.618;1.438;2023-11-21T13:20:24;6.47;;;2.47;;
11655;SDS011;5884;43.618;1.438;2023-11-21T13:22:52;2.83;;;1.90;;
11655;SDS011;5884;43.618;1.438;2023-11-21T13:25:22;2.77;;;1.90;;
11655;SDS011;5884;43.618;1.438;2023-11-21T13:27:52;4.73;;;1.87;;
11655;SDS011;5884;43.618;1.438;2023-11-21T13:30:19;4.57;;;2.23;;
11655;SDS011;5884;43.618;1.438;2023-11-21T13:32:53;5.17;;;2.50;;
11655;SDS011;5884;43.618;1.438;2023-11-21T13:35:22;5.57;;;1.87;;
11655;SDS011;5884;43.618;1.438;2023-11-21T13:37:56;3.87;;;3.03;;
11655;SDS011;5884;43.618;1.438;2023-11-21T13:40:25;3.20;;;1.80;;
11655;SDS011;5884;43.618;1.438;2023-11-21T13:42:53;4.40;;;2.27;;
11655;SDS011;5884;43.618;1.438;2023-11-21T13:45:23;3.53;;;2.10;;
11655;SDS011;5884;43.618;1.438;2023-11-21T13:47:51;5.63;;;2.50;;
11655;SDS011;5884;43.618;1.438;2023-11-21T13:50:23;2.27;;;1.67;;
11655;SDS011;5884;43.618;1.438;2023-11-21T13:52:55;3.60;;;2.00;;
11655;SDS011;5884;43.618;1.438;2023-11-21T13:55:23;3.50;;;2.23;;
11655;SDS011;5884;43.618;1.438;2023-11-21T13:57:51;5.47;;;2.07;;
11655;SDS011;5884;43.618;1.438;2023-11-21T14:00:18;7.70;;;2.50;;
11655;SDS011;5884;43.618;1.438;2023-11-21T14:03:01;5.10;;;2.17;;
11655;SDS011;5884;43.618;1.438;2023-11-21T14:05:33;2.83;;;1.97;;
11655;SDS011;5884;43.618;1.438;2023-11-21T14:08:00;5.00;;;2.10;;
11655;SDS011;5884;43.618;1.438;2023-11-21T14:10:29;6.03;;;2.10;;
11655;SDS011;5884;43.618;1.438;2023-11-21T14:13:05;3.50;;;2.20;;
11655;SDS011;5884;43.618;1.438;2023-11-21T14:15:32;2.90;;;2.00;;
11655;SDS011;5884;43.618;1.438;2023-11-21T14:18:04;6.53;;;3.43;;
11655;SDS011;5884;43.618;1.438;2023-11-21T14:20:35;5.70;;;2.47;;
11655;SDS011;5884;43.618;1.438;2023-11-21T14:23:03;3.53;;;2.37;;
11655;SDS011;5884;43.618;1.438;2023-11-21T14:25:31;7.17;;;2.70;;
11655;SDS011;5884;43.618;1.438;2023-11-21T14:27:59;3.07;;;1.90;;
11655;SDS011;5884;43.618;1.438;2023-11-21T14:30:28;3.13;;;2.00;;
11655;SDS011;5884;43.618;1.438;2023-11-21T14:32:57;3.57;;;2.40;;
11655;SDS011;5884;43.618;1.438;2023-11-21T14:35:25;5.10;;;2.50;;
11655;SDS011;5884;43.618;1.438;2023-11-21T14:37:52;8.77;;;3.27;;
11655;SDS011;5884;43.618;1.438;2023-11-21T14:40:20;7.37;;;4.60;;
11655;SDS011;5884;43.618;1.438;2023-11-21T14:42:49;5.67;;;2.90;;
11655;SDS011;5884;43.618;1.438;2023-11-21T14:45:18;3.87;;;2.33;;
11655;SDS011;5884;43.618;1.438;2023-11-21T14:47:46;6.50;;;2.70;;
11655;SDS011;5884;43.618;1.438;2023-11-21T14:50:21;4.33;;;2.47;;
11655;SDS011;5884;43.618;1.438;2023-11-21T14:53:07;5.43;;;2.10;;
11655;SDS011;5884;43.618;1.438;2023-11-21T14:55:34;4.57;;;2.37;;
11655;SDS011;5884;43.618;1.438;2023-11-21T14:58:17;3.30;;;2.30;;
11655;SDS011;5884;43.618;1.438;2023-11-21T15:00:51;5.03;;;2.00;;
11655;SDS011;5884;43.618;1.438;2023-11-21T15:03:23;4.30;;;2.13;;
11655;SDS011;5884;43.618;1.438;2023-11-21T15:06:04;6.20;;;2.30;;
11655;SDS011;5884;43.618;1.438;2023-11-21T15:08:49;4.20;;;2.30;;
11655;SDS011;5884;43.618;1.438;2023-11-21T15:11:22;5.80;;;2.40;;
11655;SDS011;5884;43.618;1.438;2023-11-21T15:13:55;5.43;;;2.33;;
11655;SDS011;5884;43.618;1.438;2023-11-21T15:16:23;4.93;;;2.90;;
11655;SDS011;5884;43.618;1.438;2023-11-21T15:18:52;4.97;;;2.40;;
11655;SDS011;5884;43.618;1.438;2023-11-21T15:21:19;4.87;;;2.30;;
11655;SDS011;5884;43.618;1.438;2023-11-21T15:23:50;5.70;;;2.43;;
11655;SDS011;5884;43.618;1.438;2023-11-21T15:26:18;6.67;;;2.67;;
11655;SDS011;5884;43.618;1.438;2023-11-21T15:28:47;5.03;;;2.93;;
11655;SDS011;5884;43.618;1.438;2023-11-21T15:31:14;4.10;;;2.67;;
11655;SDS011;5884;43.618;1.438;2023-11-21T15:33:45;3.70;;;2.57;;
11655;SDS011;5884;43.618;1.438;2023-11-21T15:36:12;6.50;;;2.60;;
11655;SDS011;5884;43.618;1.438;2023-11-21T15:38:40;5.03;;;2.93;;
11655;SDS011;5884;43.618;1.438;2023-11-21T15:41:09;9.63;;;3.33;;
11655;SDS011;5884;43.618;1.438;2023-11-21T15:43:36;5.60;;;2.30;;
11655;SDS011;5884;43.618;1.438;2023-11-21T15:46:04;3.93;;;2.07;;
11655;SDS011;5884;43.618;1.438;2023-11-21T15:48:33;5.30;;;2.50;;
11655;SDS011;5884;43.618;1.438;2023-11-21T15:51:01;6.10;;;2.10;;
11655;SDS011;5884;43.618;1.438;2023-11-21T15:53:29;3.10;;;2.10;;
11655;SDS011;5884;43.618;1.438;2023-11-21T15:55:57;4.07;;;2.30;;
11655;SDS011;5884;43.618;1.438;2023-11-21T15:58:26;3.37;;;1.90;;
11655;SDS011;5884;43.618;1.438;2023-11-21T16:00:53;4.13;;;1.90;;
11655;SDS011;5884;43.618;1.438;2023-11-21T16:03:21;7.00;;;1.80;;
11655;SDS011;5884;43.618;1.438;2023-11-21T16:05:49;3.67;;;1.83;;
11655;SDS011;5884;43.618;1.438;2023-11-21T16:08:16;5.40;;;2.00;;
11655;SDS011;5884;43.618;1.438;2023-11-21T16:10:43;4.43;;;1.80;;
11655;SDS011;5884;43.618;1.438;2023-11-21T16:13:10;3.10;;;1.50;;
11655;SDS011;5884;43.618;1.438;2023-11-21T16:15:39;4.03;;;1.77;;
11655;SDS011;5884;43.618;1.438;2023-11-21T16:18:08;2.57;;;1.80;;
11655;SDS011;5884;43.618;1.438;2023-11-21T16:20:35;3.90;;;2.13;;
11655;SDS011;5884;43.618;1.438;2023-11-21T16:23:02;3.50;;;2.00;;
11655;SDS011;5884;43.618;1.438;2023-11-21T16:25:29;5.40;;;1.90;;
11655;SDS011;5884;43.618;1.438;2023-11-21T16:27:57;3.73;;;2.00;;
11655;SDS011;5884;43.618;1.438;2023-11-21T16:30:28;4.10;;;2.00;;
11655;SDS011;5884;43.618;1.438;2023-11-21T16:32:59;4.33;;;2.13;;
11655;SDS011;5884;43.618;1.438;2023-11-21T16:35:27;5.73;;;1.93;;
11655;SDS011;5884;43.618;1.438;2023-11-21T16:37:55;6.00;;;2.07;;
11655;SDS011;5884;43.618;1.438;2023-11-21T16:40:22;3.57;;;1.67;;
11655;SDS011;5884;43.618;1.438;2023-11-21T16:42:50;4.10;;;1.70;;
11655;SDS011;5884;43.618;1.438;2023-11-21T16:45:17;3.30;;;1.87;;
11655;SDS011;5884;43.618;1.438;2023-11-21T16:47:44;5.97;;;2.10;;
11655;SDS011;5884;43.618;1.438;2023-11-21T16:50:13;4.20;;;1.83;;
11655;SDS011;5884;43.618;1.438;2023-11-21T16:52:40;6.37;;;2.00;;
11655;SDS011;5884;43.618;1.438;2023-11-21T16:55:08;5.83;;;1.90;;
11655;SDS011;5884;43.618;1.438;2023-11-21T16:57:36;4.87;;;2.27;;
11655;SDS011;5884;43.618;1.438;2023-11-21T17:00:05;6.67;;;2.10;;
11655;SDS011;5884;43.618;1.438;2023-11-21T17:02:36;5.47;;;2.30;;
11655;SDS011;5884;43.618;1.438;2023-11-21T17:05:03;6.77;;;2.40;;
11655;SDS011;5884;43.618;1.438;2023-11-21T17:07:34;3.67;;;2.17;;
11655;SDS011;5884;43.618;1.438;2023-11-21T17:10:01;6.50;;;2.63;;
11655;SDS011;5884;43.618;1.438;2023-11-21T17:12:32;8.00;;;4.27;;
11655;SDS011;5884;43.618;1.438;2023-11-21T17:14:59;6.17;;;3.60;;
11655;SDS011;5884;43.618;1.438;2023-11-21T17:17:27;6.57;;;3.33;;
11655;SDS011;5884;43.618;1.438;2023-11-21T17:19:54;5.37;;;2.67;;
11655;SDS011;5884;43.618;1.438;2023-11-21T17:22:22;4.43;;;2.40;;
11655;SDS011;5884;43.618;1.438;2023-11-21T17:24:50;3.63;;;2.47;;
11655;SDS011;5884;43.618;1.438;2023-11-21T17:27:18;7.53;;;2.37;;
11655;SDS011;5884;43.618;1.438;2023-11-21T17:29:47;6.33;;;3.40;;
11655;SDS011;5884;43.618;1.438;2023-11-21T17:32:14;11.60;;;5.07;;
11655;SDS011;5884;43.618;1.438;2023-11-21T17:34:41;11.30;;;5.57;;
11655;SDS011;5884;43.618;1.438;2023-11-21T17:37:09;9.37;;;4.93;;
11655;SDS011;5884;43.618;1.438;2023-11-21T17:39:37;14.23;;;5.17;;
11655;SDS011;5884;43.618;1.438;2023-11-21T17:42:06;12.57;;;5.90;;
11655;SDS011;5884;43.618;1.438;2023-11-21T17:44:34;9.27;;;4.97;;
11655;SDS011;5884;43.618;1.438;2023-11-21T17:47:01;10.30;;;4.93;;
11655;SDS011;5884;43.618;1.438;2023-11-21T17:49:28;6.87;;;4.57;;
11655;SDS011;5884;43.618;1.438;2023-11-21T17:51:55;6.90;;;2.90;;
11655;SDS011;5884;43.618;1.438;2023-11-21T17:54:22;7.73;;;3.90;;
11655;SDS011;5884;43.618;1.438;2023-11-21T17:56:49;6.17;;;2.80;;
11655;SDS011;5884;43.618;1.438;2023-11-21T17:59:18;9.43;;;3.60;;
11655;SDS011;5884;43.618;1.438;2023-11-21T18:01:46;7.10;;;2.97;;
11655;SDS011;5884;43.618;1.438;2023-11-21T18:04:13;6.47;;;3.10;;
11655;SDS011;5884;43.618;1.438;2023-11-21T18:06:40;6.30;;;3.43;;
11655;SDS011;5884;43.618;1.438;2023-11-21T18:09:09;6.00;;;2.87;;
11655;SDS011;5884;43.618;1.438;2023-11-21T18:11:37;4.43;;;3.30;;
11655;SDS011;5884;43.618;1.438;2023-11-21T18:14:04;5.60;;;3.27;;
11655;SDS011;5884;43.618;1.438;2023-11-21T18:16:35;4.40;;;3.10;;
11655;SDS011;5884;43.618;1.438;2023-11-21T18:19:03;5.57;;;3.83;;
11655;SDS011;5884;43.618;1.438;2023-11-21T18:21:31;6.47;;;3.30;;
11655;SDS011;5884;43.618;1.438;2023-11-21T18:23:58;9.20;;;4.00;;
11655;SDS011;5884;43.618;1.438;2023-11-21T18:26:25;4.80;;;3.30;;
11655;SDS011;5884;43.618;1.438;2023-11-21T18:28:52;8.60;;;3.30;;
11655;SDS011;5884;43.618;1.438;2023-11-21T18:31:19;5.53;;;3.47;;
11655;SDS011;5884;43.618;1.438;2023-11-21T18:33:48;6.13;;;3.13;;
11655;SDS011;5884;43.618;1.438;2023-11-21T18:36:15;4.43;;;3.07;;
11655;SDS011;5884;43.618;1.438;2023-11-21T18:38:42;5.27;;;2.83;;
11655;SDS011;5884;43.618;1.438;2023-11-21T18:41:09;5.53;;;2.70;;
11655;SDS011;5884;43.618;1.438;2023-11-21T18:43:36;6.87;;;3.57;;
11655;SDS011;5884;43.618;1.438;2023-11-21T18:46:06;8.73;;;4.00;;
11655;SDS011;5884;43.618;1.438;2023-11-21T18:48:34;7.37;;;4.97;;
11655;SDS011;5884;43.618;1.438;2023-11-21T18:51:03;8.53;;;5.20;;
11655;SDS011;5884;43.618;1.438;2023-11-21T18:53:30;7.90;;;3.43;;
11655;SDS011;5884;43.618;1.438;2023-11-21T18:56:00;4.73;;;2.80;;
11655;SDS011;5884;43.618;1.438;2023-11-21T18:58:27;4.60;;;3.23;;
11655;SDS011;5884;43.618;1.438;2023-11-21T19:00:54;4.07;;;2.43;;
11655;SDS011;5884;43.618;1.438;2023-11-21T19:03:21;7.20;;;4.50;;
11655;SDS011;5884;43.618;1.438;2023-11-21T19:05:48;5.93;;;2.90;;
11655;SDS011;5884;43.618;1.438;2023-11-21T19:08:17;6.97;;;2.60;;
11655;SDS011;5884;43.618;1.438;2023-11-21T19:10:46;5.93;;;2.73;;
11655;SDS011;5884;43.618;1.438;2023-11-21T19:13:13;4.30;;;2.40;;
11655;SDS011;5884;43.618;1.438;2023-11-21T19:15:42;4.33;;;2.40;;
11655;SDS011;5884;43.618;1.438;2023-11-21T19:18:10;5.00;;;2.90;;
11655;SDS011;5884;43.618;1.438;2023-11-21T19:20:37;8.93;;;3.00;;
11655;SDS011;5884;43.618;1.438;2023-11-21T19:23:04;5.97;;;3.10;;
11655;SDS011;5884;43.618;1.438;2023-11-21T19:25:33;4.23;;;2.60;;
11655;SDS011;5884;43.618;1.438;2023-11-21T19:28:01;5.47;;;2.43;;
11655;SDS011;5884;43.618;1.438;2023-11-21T19:30:28;6.63;;;2.93;;
11655;SDS011;5884;43.618;1.438;2023-11-21T19:32:57;4.90;;;2.80;;
11655;SDS011;5884;43.618;1.438;2023-11-21T19:35:30;6.70;;;2.70;;
11655;SDS011;5884;43.618;1.438;2023-11-21T19:38:01;7.90;;;3.50;;
11655;SDS011;5884;43.618;1.438;2023-11-21T19:40:28;4.20;;;2.70;;
11655;SDS011;5884;43.618;1.438;2023-11-21T19:42:57;4.37;;;2.50;;
11655;SDS011;5884;43.618;1.438;2023-11-21T19:45:24;4.83;;;2.70;;
11655;SDS011;5884;43.618;1.438;2023-11-21T19:47:52;6.87;;;2.77;;
11655;SDS011;5884;43.618;1.438;2023-11-21T19:50:19;6.63;;;3.03;;
11655;SDS011;5884;43.618;1.438;2023-11-21T19:52:46;6.83;;;2.40;;
11655;SDS011;5884;43.618;1.438;2023-11-21T19:55:14;6.83;;;2.53;;
11655;SDS011;5884;43.618;1.438;2023-11-21T19:57:42;9.90;;;4.77;;
11655;SDS011;5884;43.618;1.438;2023-11-21T20:00:11;7.80;;;5.00;;
11655;SDS011;5884;43.618;1.438;2023-11-21T20:02:40;4.73;;;2.80;;
11655;SDS011;5884;43.618;1.438;2023-11-21T20:05:07;9.50;;;2.80;;
11655;SDS011;5884;43.618;1.438;2023-11-21T20:07:35;4.77;;;2.87;;
11655;SDS011;5884;43.618;1.438;2023-11-21T20:10:02;4.20;;;2.67;;
11655;SDS011;5884;43.618;1.438;2023-11-21T20:12:30;6.23;;;3.27;;
11655;SDS011;5884;43.618;1.438;2023-11-21T20:14:57;5.20;;;2.93;;
11655;SDS011;5884;43.618;1.438;2023-11-21T20:17:26;5.47;;;2.90;;
11655;SDS011;5884;43.618;1.438;2023-11-21T20:19:53;6.97;;;3.30;;
11655;SDS011;5884;43.618;1.438;2023-11-21T20:22:20;4.97;;;2.97;;
11655;SDS011;5884;43.618;1.438;2023-11-21T20:24:48;6.43;;;3.07;;
11655;SDS011;5884;43.618;1.438;2023-11-21T20:27:15;4.53;;;3.00;;
11655;SDS011;5884;43.618;1.438;2023-11-21T20:29:42;4.30;;;2.77;;
11655;SDS011;5884;43.618;1.438;2023-11-21T20:32:10;8.67;;;4.10;;
11655;SDS011;5884;43.618;1.438;2023-11-21T20:34:38;6.73;;;3.13;;
11655;SDS011;5884;43.618;1.438;2023-11-21T20:37:07;7.97;;;4.03;;
11655;SDS011;5884;43.618;1.438;2023-11-21T20:39:34;4.70;;;2.90;;
11655;SDS011;5884;43.618;1.438;2023-11-21T20:42:01;5.57;;;2.60;;
11655;SDS011;5884;43.618;1.438;2023-11-21T20:44:29;4.57;;;2.50;;
11655;SDS011;5884;43.618;1.438;2023-11-21T20:46:56;4.70;;;2.53;;
11655;SDS011;5884;43.618;1.438;2023-11-21T20:49:23;6.13;;;2.53;;
11655;SDS011;5884;43.618;1.438;2023-11-21T20:51:52;5.50;;;3.27;;
11655;SDS011;5884;43.618;1.438;2023-11-21T20:54:19;5.63;;;3.10;;
11655;SDS011;5884;43.618;1.438;2023-11-21T20:56:46;8.07;;;3.60;;
11655;SDS011;5884;43.618;1.438;2023-11-21T20:59:13;8.53;;;3.30;;
11655;SDS011;5884;43.618;1.438;2023-11-21T21:01:41;6.43;;;4.57;;